Time;durP1;ratioP1;P1;durP2;ratioP2;P2;SDS_P1;SDS_P2;PMS_P1;PMS_P2;Temp;Humidity;BMP_temperature;BMP_pressure;BME280_temperature;BME280_humidity;BME280_pressure;Samples;Min_cycle;Max_cycle;Signal;HPM_P1;HPM_P2
2022/07/05 00:00:09;;;;;;;10.90;8.70;;;;;;;22.31;86.31;98981.50;104964;1272;61233;-76
2022/07/05 00:02:55;;;;;;;9.60;8.30;;;;;;;22.18;88.28;98976.54;104952;1273;62457;-76
2022/07/05 00:05:22;;;;;;;14.00;8.40;;;;;;;22.05;89.34;98970.40;104970;1271;61363;-76
2022/07/05 00:07:48;;;;;;;8.90;7.80;;;;;;;21.91;90.08;98969.52;104882;1274;61270;-76
2022/07/05 00:10:15;;;;;;;12.20;10.00;;;;;;;21.72;92.35;98979.05;104977;1271;73598;-76
2022/07/05 00:12:41;;;;;;;12.60;9.90;;;;;;;21.56;95.72;98974.08;104944;1273;61488;-76
2022/07/05 00:15:08;;;;;;;9.80;8.50;;;;;;;21.38;97.23;98974.92;105036;1272;61181;-77
2022/07/05 00:17:35;;;;;;;9.90;8.80;;;;;;;21.24;99.23;98967.06;104953;1273;73443;-76
2022/07/05 00:20:04;;;;;;;9.60;8.30;;;;;;;21.12;99.74;98965.67;104950;1273;67826;-77
2022/07/05 00:22:31;;;;;;;10.50;8.10;;;;;;;21.07;98.82;98961.63;104960;1273;74303;-77
2022/07/05 00:24:57;;;;;;;9.90;8.90;;;;;;;21.04;97.74;98959.91;104947;1273;61296;-77
2022/07/05 00:27:24;;;;;;;9.40;8.40;;;;;;;21.03;97.64;98952.46;104929;1273;61346;-77
2022/07/05 00:29:50;;;;;;;10.40;9.60;;;;;;;21.01;97.65;98942.02;104942;1273;61264;-77
2022/07/05 00:32:17;;;;;;;10.50;9.30;;;;;;;20.98;97.45;98935.63;104949;1273;68157;-77
2022/07/05 00:34:44;;;;;;;8.70;7.80;;;;;;;20.96;97.70;98932.61;104892;1273;74274;-77
2022/07/05 00:37:10;;;;;;;9.20;8.30;;;;;;;20.92;97.51;98928.89;104916;1273;61185;-77
2022/07/05 00:39:37;;;;;;;9.10;8.20;;;;;;;20.90;97.43;98933.52;104818;1274;61384;-76
2022/07/05 00:42:04;;;;;;;8.90;8.00;;;;;;;20.89;97.42;98930.92;104921;1272;75531;-77
2022/07/05 00:44:36;;;;;;;10.30;9.10;;;;;;;20.88;98.60;98934.59;104971;1273;70191;-77
2022/07/05 00:47:06;;;;;;;10.30;9.40;;;;;;;20.83;99.55;98929.70;104934;1273;73104;-77
2022/07/05 00:49:33;;;;;;;;;;;;;;;20.78;99.78;98931.20;104822;1273;61262;-77
2022/07/05 00:52:01;;;;;;;11.40;9.10;;;;;;;20.75;99.86;98938.36;104908;1273;61139;-76
2022/07/05 00:54:32;;;;;;;8.20;7.40;;;;;;;20.76;100.00;98942.11;104919;1273;74847;-76
2022/07/05 00:56:58;;;;;;;11.30;8.50;;;;;;;20.76;99.63;98939.94;105138;1272;69488;-77
2022/07/05 00:59:27;;;;;;;9.80;8.80;;;;;;;20.76;99.96;98938.77;104946;1271;73278;-77
2022/07/05 01:01:54;;;;;;;9.50;8.40;;;;;;;20.77;100.00;98934.92;104924;1271;61280;-77
2022/07/05 01:04:21;;;;;;;9.80;8.80;;;;;;;20.77;100.00;98934.04;104997;1271;61277;-75
2022/07/05 01:06:49;;;;;;;9.40;8.10;;;;;;;20.76;100.00;98928.94;104828;1273;76143;-76
2022/07/05 01:09:18;;;;;;;9.30;8.40;;;;;;;20.76;100.00;98926.56;105075;1271;70187;-77
2022/07/05 01:11:46;;;;;;;9.70;8.80;;;;;;;20.78;100.00;98926.70;105015;1271;73025;-77
2022/07/05 01:14:16;;;;;;;9.50;7.90;;;;;;;20.79;100.00;98923.52;104962;1271;61294;-77
2022/07/05 01:16:43;;;;;;;9.00;8.00;;;;;;;20.79;100.00;98921.81;104981;1271;61321;-77
2022/07/05 01:19:11;;;;;;;10.80;8.20;;;;;;;20.79;100.00;98927.06;104933;1271;76135;-77
2022/07/05 01:21:46;;;;;;;9.00;8.00;;;;;;;20.78;100.00;98918.50;105013;1271;69191;-75
2022/07/05 01:24:17;;;;;;;8.40;7.60;;;;;;;20.77;100.00;98920.46;104787;1272;74420;-76
2022/07/05 01:26:47;;;;;;;9.00;8.20;;;;;;;20.71;100.00;98924.63;104965;1271;61293;-76
2022/07/05 01:29:14;;;;;;;8.80;8.00;;;;;;;20.59;100.00;98926.77;104975;1271;61338;-76
2022/07/05 01:31:41;;;;;;;8.80;7.80;;;;;;;20.51;100.00;98925.40;104956;1271;75103;-76
2022/07/05 01:34:08;;;;;;;8.00;7.20;;;;;;;20.52;100.00;98924.48;104905;1273;69839;-76
2022/07/05 01:36:35;;;;;;;8.50;7.70;;;;;;;20.53;100.00;98928.46;104917;1273;61362;-77
2022/07/05 01:39:06;;;;;;;8.70;7.80;;;;;;;20.53;100.00;98928.27;104971;1273;61236;-77
2022/07/05 01:41:33;;;;;;;7.90;7.20;;;;;;;20.49;100.00;98928.89;104864;1273;61676;-77
2022/07/05 01:44:00;;;;;;;8.60;7.90;;;;;;;20.46;100.00;98930.17;104934;1273;74954;-77
2022/07/05 01:46:32;;;;;;;8.80;7.90;;;;;;;20.43;100.00;98927.96;104911;1274;70260;-77
2022/07/05 01:49:05;;;;;;;8.80;8.00;;;;;;;20.41;100.00;98926.79;104964;1273;73392;-79
2022/07/05 01:51:48;;;;;;;9.30;7.70;;;;;;;20.41;100.00;98928.38;104952;1271;61239;-77
2022/07/05 01:54:14;;;;;;;8.90;8.10;;;;;;;20.42;100.00;98927.19;104980;1271;61347;-77
2022/07/05 01:56:41;;;;;;;10.30;8.30;;;;;;;20.43;100.00;98919.71;104923;1271;76083;-77
2022/07/05 01:59:08;;;;;;;9.80;8.90;;;;;;;20.42;100.00;98923.53;104987;1271;70326;-75
2022/07/05 02:01:38;;;;;;;9.10;8.30;;;;;;;20.41;100.00;98921.17;104973;1271;74152;-76
2022/07/05 02:04:07;;;;;;;9.70;8.90;;;;;;;20.35;100.00;98919.77;105026;1272;61394;-76
2022/07/05 02:06:34;;;;;;;11.20;8.60;;;;;;;20.32;100.00;98914.88;105030;1271;61821;-76
2022/07/05 02:09:03;;;;;;;9.30;8.50;;;;;;;20.31;100.00;98915.74;104878;1273;74579;-76
2022/07/05 02:11:29;;;;;;;10.40;9.40;;;;;;;20.32;100.00;98914.71;104969;1273;69517;-78
2022/07/05 02:13:57;;;;;;;10.90;9.80;;;;;;;20.31;100.00;98914.79;104941;1273;73439;-76
2022/07/05 02:16:25;;;;;;;10.10;9.30;;;;;;;20.30;100.00;98912.19;104896;1273;61257;-76
2022/07/05 02:18:52;;;;;;;9.90;9.00;;;;;;;20.27;100.00;98910.55;104798;1274;61853;-78
2022/07/05 02:21:19;;;;;;;10.30;9.50;;;;;;;20.27;100.00;98913.33;104941;1273;76173;-78
2022/07/05 02:23:46;;;;;;;11.30;10.20;;;;;;;20.26;100.00;98912.11;104950;1273;69962;-76
2022/07/05 02:26:13;;;;;;;10.40;9.50;;;;;;;20.25;100.00;98905.41;104921;1273;74663;-75
2022/07/05 02:28:40;;;;;;;10.70;9.80;;;;;;;20.24;100.00;98902.22;104932;1273;61329;-75
2022/07/05 02:31:07;;;;;;;11.30;10.20;;;;;;;20.24;100.00;98911.05;104974;1273;61686;-76
2022/07/05 02:33:33;;;;;;;12.00;9.50;;;;;;;20.21;100.00;98911.42;104950;1273;75362;-75
2022/07/05 02:36:11;;;;;;;10.40;9.40;;;;;;;20.16;100.00;98911.96;104739;1274;69440;-75
2022/07/05 02:38:37;;;;;;;11.30;10.40;;;;;;;20.13;100.00;98917.96;104822;1273;73682;-76
2022/07/05 02:41:09;;;;;;;11.40;10.00;;;;;;;20.12;100.00;98918.66;104916;1272;61277;-76
2022/07/05 02:43:37;;;;;;;11.00;10.00;;;;;;;20.08;100.00;98919.48;104962;1273;61260;-76
2022/07/05 02:46:06;;;;;;;10.80;9.80;;;;;;;20.00;100.00;98923.55;104963;1273;75191;-76
2022/07/05 02:48:33;;;;;;;9.70;8.90;;;;;;;19.96;100.00;98925.09;104978;1273;70321;-76
2022/07/05 02:51:01;;;;;;;10.00;9.00;;;;;;;19.94;100.00;98927.05;104818;1274;73131;-75
2022/07/05 02:53:27;;;;;;;10.70;9.70;;;;;;;19.94;100.00;98931.98;104934;1273;61237;-75
2022/07/05 02:55:54;;;;;;;10.50;9.70;;;;;;;19.94;100.00;98929.11;104923;1273;61319;-75
2022/07/05 02:58:21;;;;;;;11.00;9.90;;;;;;;19.91;100.00;98922.17;104925;1273;76450;-76
2022/07/05 03:00:49;;;;;;;10.20;9.20;;;;;;;19.93;100.00;98917.85;104887;1273;61237;-75
2022/07/05 03:03:16;;;;;;;10.90;9.80;;;;;;;19.96;100.00;98916.14;104768;1273;73134;-76
2022/07/05 03:05:42;;;;;;;10.10;9.30;;;;;;;19.97;100.00;98925.54;104847;1275;61465;-74
2022/07/05 03:08:09;;;;;;;11.30;10.20;;;;;;;19.97;100.00;98928.81;104904;1272;61354;-75
2022/07/05 03:10:36;;;;;;;12.40;11.30;;;;;;;19.95;100.00;98923.90;104932;1273;75276;-75
2022/07/05 03:13:03;;;;;;;12.50;11.40;;;;;;;19.98;100.00;98922.05;104753;1275;68847;-75
2022/07/05 03:15:30;;;;;;;13.40;11.90;;;;;;;20.03;100.00;98921.46;104941;1273;73426;-75
2022/07/05 03:17:57;;;;;;;12.20;11.00;;;;;;;20.09;100.00;98916.00;104900;1273;61267;-75
2022/07/05 03:20:23;;;;;;;12.10;10.90;;;;;;;20.13;100.00;98922.02;104906;1274;61239;-75
2022/07/05 03:22:50;;;;;;;12.60;11.40;;;;;;;20.16;100.00;98920.20;104928;1273;75201;-75
2022/07/05 03:25:16;;;;;;;12.60;11.30;;;;;;;20.15;100.00;98918.68;104897;1273;61321;-75
2022/07/05 03:27:43;;;;;;;11.90;10.70;;;;;;;20.14;100.00;98922.44;104907;1273;74384;-75
2022/07/05 03:30:11;;;;;;;12.10;11.00;;;;;;;20.12;100.00;98924.09;104776;1275;61491;-76
2022/07/05 03:32:37;;;;;;;14.40;13.10;;;;;;;20.07;100.00;98933.23;104948;1273;61247;-75
2022/07/05 03:35:05;;;;;;;13.70;12.40;;;;;;;20.05;100.00;98940.50;104919;1273;76380;-76
2022/07/05 03:37:31;;;;;;;13.00;11.70;;;;;;;20.03;100.00;98945.09;104964;1273;70149;-77
2022/07/05 03:39:58;;;;;;;17.00;12.40;;;;;;;20.02;100.00;98948.23;104952;1273;61374;-75
2022/07/05 03:42:24;;;;;;;15.20;11.70;;;;;;;20.05;100.00;98955.92;104800;1274;61476;-75
2022/07/05 03:44:51;;;;;;;11.10;10.20;;;;;;;20.08;100.00;98959.48;104912;1273;61273;-75
2022/07/05 03:47:19;;;;;;;12.80;11.60;;;;;;;20.10;100.00;98962.49;104930;1272;76333;-75
2022/07/05 03:49:45;;;;;;;13.10;12.00;;;;;;;20.10;100.00;98963.86;104976;1273;69319;-75
2022/07/05 03:52:12;;;;;;;12.60;11.50;;;;;;;20.09;100.00;98969.55;104912;1273;73249;-75
2022/07/05 03:54:39;;;;;;;13.70;12.50;;;;;;;20.12;100.00;98977.00;104946;1273;61171;-77
2022/07/05 03:57:05;;;;;;;13.90;12.70;;;;;;;20.11;100.00;98979.52;104974;1274;61268;-75
2022/07/05 03:59:32;;;;;;;14.70;13.20;;;;;;;20.13;100.00;98979.70;104916;1274;75241;-77
2022/07/05 04:01:58;;;;;;;14.80;12.00;;;;;;;20.16;100.00;98974.86;104927;1274;61390;-76
2022/07/05 04:04:25;;;;;;;14.20;12.90;;;;;;;20.20;100.00;98974.88;104936;1273;61464;-76
2022/07/05 04:06:51;;;;;;;13.90;12.50;;;;;;;20.23;100.00;98979.96;104956;1272;61295;-76
2022/07/05 04:09:18;;;;;;;12.80;11.60;;;;;;;20.24;100.00;98981.98;104801;1276;61369;-76
2022/07/05 04:11:45;;;;;;;14.30;12.80;;;;;;;20.24;100.00;98982.69;104955;1274;61298;-77
2022/07/05 04:14:11;;;;;;;14.40;13.10;;;;;;;20.24;100.00;98981.05;105012;1274;61397;-75
2022/07/05 04:16:38;;;;;;;14.10;12.60;;;;;;;20.25;100.00;98981.00;105024;1274;61390;-76
2022/07/05 04:19:04;;;;;;;14.10;12.80;;;;;;;20.24;100.00;98978.91;104989;1274;61304;-75
2022/07/05 04:21:31;;;;;;;14.50;13.20;;;;;;;20.22;100.00;98977.52;105114;1273;61333;-76
2022/07/05 04:23:58;;;;;;;15.00;13.40;;;;;;;20.20;100.00;98976.85;105335;1274;318493;-76
2022/07/05 04:26:26;;;;;;;14.90;13.30;;;;;;;20.19;100.00;98974.21;105613;1273;67719;-75
2022/07/05 04:28:52;;;;;;;15.40;14.00;;;;;;;20.17;100.00;98973.11;105157;1273;73171;-76
2022/07/05 04:31:19;;;;;;;15.50;14.00;;;;;;;20.16;100.00;98967.66;105225;1271;61399;-76
2022/07/05 04:33:46;;;;;;;16.10;14.60;;;;;;;20.16;100.00;98969.49;105506;1271;61395;-76
2022/07/05 04:36:12;;;;;;;16.00;14.60;;;;;;;20.19;100.00;98974.91;104972;1271;75626;-76
2022/07/05 04:38:39;;;;;;;15.30;13.90;;;;;;;20.22;100.00;98976.81;104975;1271;61307;-75
2022/07/05 04:41:06;;;;;;;15.80;14.30;;;;;;;20.25;100.00;98977.59;105003;1271;74204;-76
2022/07/05 04:43:34;;;;;;;15.70;14.20;;;;;;;20.27;100.00;98977.71;105021;1271;61355;-77
2022/07/05 04:46:00;;;;;;;16.10;14.60;;;;;;;20.30;100.00;98979.91;104995;1271;61177;-77
2022/07/05 04:48:27;;;;;;;14.70;13.30;;;;;;;20.32;100.00;98978.77;105014;1271;76382;-79
2022/07/05 04:50:54;;;;;;;15.70;14.30;;;;;;;20.32;100.00;98984.95;104801;1271;67940;-76
2022/07/05 04:53:21;;;;;;;16.30;14.60;;;;;;;20.34;100.00;98992.04;104953;1271;73590;-76
2022/07/05 04:55:47;;;;;;;15.70;14.10;;;;;;;20.36;100.00;98992.65;104854;1274;61266;-75
2022/07/05 04:58:14;;;;;;;15.80;14.40;;;;;;;20.33;100.00;98993.63;104940;1271;61415;-76
2022/07/05 05:00:40;;;;;;;15.90;14.20;;;;;;;20.31;100.00;98995.27;104957;1271;61397;-75
2022/07/05 05:03:07;;;;;;;16.90;15.30;;;;;;;20.26;100.00;98995.29;104966;1271;69452;-77
2022/07/05 05:05:33;;;;;;;15.50;14.10;;;;;;;20.25;100.00;98998.98;104994;1271;61320;-76
2022/07/05 05:08:00;;;;;;;15.60;14.30;;;;;;;20.28;100.00;99001.56;104897;1271;61310;-73
2022/07/05 05:10:27;;;;;;;16.20;14.50;;;;;;;20.29;100.00;99003.41;104954;1274;62056;-76
2022/07/05 05:12:53;;;;;;;15.90;14.50;;;;;;;20.28;100.00;99007.14;104916;1274;75954;-76
2022/07/05 05:15:21;;;;;;;16.50;14.90;;;;;;;20.30;100.00;99008.09;104929;1274;61366;-76
2022/07/05 05:17:47;;;;;;;18.20;16.20;;;;;;;20.31;100.00;99006.65;104917;1274;74133;-77
2022/07/05 05:20:18;;;;;;;17.90;16.20;;;;;;;20.33;100.00;99006.99;104885;1273;61288;-77
2022/07/05 05:22:46;;;;;;;18.30;16.60;;;;;;;20.35;100.00;99009.15;104948;1273;61316;-77
2022/07/05 05:25:13;;;;;;;18.90;16.90;;;;;;;20.36;100.00;99016.81;104882;1273;75332;-77
2022/07/05 05:27:47;;;;;;;19.10;17.30;;;;;;;20.35;100.00;99021.08;104754;1275;70159;-77
2022/07/05 05:30:15;;;;;;;18.30;16.40;;;;;;;20.32;100.00;99019.20;104923;1274;73428;-75
2022/07/05 05:32:42;;;;;;;17.50;15.90;;;;;;;20.29;100.00;99021.11;104977;1274;61236;-77
2022/07/05 05:35:09;;;;;;;17.70;16.00;;;;;;;20.25;100.00;99020.46;104916;1274;61295;-77
2022/07/05 05:38:05;;;;;;;18.50;16.70;;;;;;;20.23;100.00;99027.56;104933;1274;76851;-76
2022/07/05 05:40:37;;;;;;;18.40;16.70;;;;;;;20.25;100.00;99033.71;104287;1281;68675;-76
2022/07/05 05:43:04;;;;;;;18.30;16.60;;;;;;;20.27;100.00;99039.64;104391;1281;74239;-76
2022/07/05 05:45:31;;;;;;;16.80;15.10;;;;;;;20.30;100.00;99048.86;104426;1281;61322;-75
2022/07/05 05:47:59;;;;;;;18.60;15.30;;;;;;;20.34;100.00;99055.06;104422;1280;62073;-76
2022/07/05 05:50:28;;;;;;;17.30;15.80;;;;;;;20.37;100.00;99063.20;104401;1280;76122;-75
2022/07/05 05:52:55;;;;;;;16.50;14.90;;;;;;;20.37;100.00;99072.06;104073;1281;70460;-76
2022/07/05 05:55:24;;;;;;;16.90;15.30;;;;;;;20.33;100.00;99082.40;104432;1281;74220;-76
2022/07/05 05:57:51;;;;;;;15.80;14.40;;;;;;;20.29;100.00;99091.14;104503;1281;61356;-76
2022/07/05 06:00:19;;;;;;;17.20;15.60;;;;;;;20.26;100.00;99099.21;104449;1281;62545;-76
2022/07/05 06:02:49;;;;;;;16.70;14.90;;;;;;;20.23;100.00;99101.34;104389;1281;75153;-76
2022/07/05 06:05:17;;;;;;;18.50;16.60;;;;;;;20.24;100.00;99103.80;104410;1281;69196;-76
2022/07/05 06:07:49;;;;;;;18.90;17.30;;;;;;;20.23;100.00;99107.70;103943;1284;73150;-76
2022/07/05 06:10:38;;;;;;;21.80;19.30;;;;;;;20.23;100.00;99105.71;104455;1280;61363;-75
2022/07/05 06:13:07;;;;;;;21.80;19.60;;;;;;;20.24;100.00;99104.61;104600;1279;61280;-77
2022/07/05 06:15:35;;;;;;;22.20;20.00;;;;;;;20.25;100.00;99107.46;104505;1281;76380;-76
2022/07/05 06:18:02;;;;;;;19.00;17.30;;;;;;;20.26;100.00;99105.41;104829;1271;69375;-76
2022/07/05 06:20:31;;;;;;;23.30;21.10;;;;;;;20.23;100.00;99105.13;104983;1271;73477;-78
2022/07/05 06:23:00;;;;;;;21.50;19.30;;;;;;;20.21;100.00;99099.73;105002;1271;61359;-78
2022/07/05 06:25:28;;;;;;;20.00;18.20;;;;;;;20.16;100.00;99098.77;105039;1271;61854;-74
2022/07/05 06:28:05;;;;;;;17.70;16.00;;;;;;;20.16;100.00;99096.83;104990;1271;76591;-78
2022/07/05 06:30:35;;;;;;;19.10;17.40;;;;;;;20.14;100.00;99098.45;104971;1271;68537;-77
2022/07/05 06:33:02;;;;;;;19.30;17.60;;;;;;;20.10;100.00;99090.65;105018;1271;72570;-76
2022/07/05 06:35:30;;;;;;;19.60;17.70;;;;;;;20.05;100.00;99084.50;104934;1271;61236;-76
2022/07/05 06:38:08;;;;;;;18.10;16.40;;;;;;;20.01;100.00;99081.34;104977;1271;61192;-75
2022/07/05 06:40:37;;;;;;;17.10;15.40;;;;;;;19.99;100.00;99071.02;104945;1271;76080;-75
2022/07/05 06:43:06;;;;;;;15.90;14.40;;;;;;;19.96;100.00;99069.58;104991;1271;69918;-75
2022/07/05 06:45:33;;;;;;;14.50;13.30;;;;;;;19.96;100.00;99074.10;105109;1271;74161;-75
2022/07/05 06:48:05;;;;;;;15.70;14.30;;;;;;;20.00;100.00;99076.35;104963;1271;61341;-76
2022/07/05 06:50:37;;;;;;;15.80;14.30;;;;;;;20.02;100.00;99080.30;104974;1271;61375;-76
2022/07/05 06:53:35;;;;;;;15.90;14.50;;;;;;;20.02;100.00;99077.05;105158;1271;75372;-76
2022/07/05 06:56:02;;;;;;;17.30;15.60;;;;;;;20.03;100.00;99073.90;104949;1271;70409;-76
2022/07/05 06:58:29;;;;;;;13.20;12.10;;;;;;;20.04;100.00;99068.08;104903;1272;73965;-77
2022/07/05 07:00:56;;;;;;;12.80;11.40;;;;;;;20.04;100.00;99068.00;104934;1271;61318;-77
2022/07/05 07:03:23;;;;;;;13.30;12.10;;;;;;;20.07;100.00;99073.28;104867;1271;62716;-76
2022/07/05 07:05:50;;;;;;;11.80;10.50;;;;;;;20.13;100.00;99085.63;104997;1271;75401;-75
2022/07/05 07:11:16;;;;;;;10.90;9.90;;;;;;;20.20;100.00;99086.71;104760;1271;73447;-76
2022/07/05 07:13:43;;;;;;;12.30;9.70;;;;;;;20.18;100.00;99085.83;104959;1271;61263;-76
2022/07/05 07:16:09;;;;;;;12.20;11.20;;;;;;;20.16;100.00;99081.34;104968;1271;61368;-77
2022/07/05 07:18:36;;;;;;;11.60;10.70;;;;;;;20.14;100.00;99081.88;104887;1271;61401;-76
2022/07/05 07:21:03;;;;;;;12.40;11.30;;;;;;;20.12;100.00;99072.91;104996;1271;61279;-78
2022/07/05 07:23:30;;;;;;;12.30;11.30;;;;;;;20.12;100.00;99067.48;104964;1271;73470;-77
2022/07/05 07:25:57;;;;;;;13.90;12.60;;;;;;;20.11;100.00;99065.83;104987;1271;61286;-75
2022/07/05 07:28:24;;;;;;;13.30;12.00;;;;;;;20.14;100.00;99069.05;104991;1271;61398;-78
2022/07/05 07:30:50;;;;;;;12.90;11.60;;;;;;;20.20;100.00;99079.38;104954;1271;61282;-76
2022/07/05 07:33:17;;;;;;;12.70;11.40;;;;;;;20.21;100.00;99082.45;104991;1271;61398;-76
2022/07/05 07:35:43;;;;;;;13.70;12.40;;;;;;;20.18;100.00;99088.19;104961;1271;74391;-76
2022/07/05 07:38:10;;;;;;;14.90;13.70;;;;;;;20.13;100.00;99088.30;104991;1271;61410;-77
2022/07/05 07:40:37;;;;;;;23.20;21.10;;;;;;;20.12;100.00;99087.89;104936;1271;61253;-75
2022/07/05 07:43:03;;;;;;;19.80;17.80;;;;;;;20.10;100.00;99087.90;104964;1271;75291;-75
2022/07/05 07:45:31;;;;;;;18.40;16.90;;;;;;;20.03;100.00;99084.70;104966;1271;69080;-75
2022/07/05 07:47:57;;;;;;;16.30;14.70;;;;;;;19.99;100.00;99083.15;104991;1271;73269;-75
2022/07/05 07:50:24;;;;;;;14.90;13.70;;;;;;;19.97;100.00;99079.42;104941;1271;61301;-76
2022/07/05 07:52:50;;;;;;;14.30;12.90;;;;;;;19.95;100.00;99073.22;105018;1271;61401;-79
2022/07/05 07:55:17;;;;;;;13.50;12.40;;;;;;;19.89;100.00;99068.63;104934;1271;61262;-77
2022/07/05 07:57:43;;;;;;;13.60;12.30;;;;;;;19.88;100.00;99076.89;105047;1271;69480;-76
2022/07/05 08:00:10;;;;;;;14.90;13.50;;;;;;;19.91;100.00;99073.80;104861;1271;71454;-75
2022/07/05 08:02:37;;;;;;;13.70;12.50;;;;;;;19.94;100.00;99074.27;104843;1271;61287;-75
2022/07/05 08:05:04;;;;;;;14.80;13.30;;;;;;;19.94;100.00;99075.55;105003;1271;61297;-78
2022/07/05 08:07:31;;;;;;;14.00;12.90;;;;;;;19.93;100.00;99074.70;104948;1271;75302;-76
2022/07/05 08:09:58;;;;;;;13.20;12.00;;;;;;;19.95;100.00;99071.28;104971;1271;68636;-76
2022/07/05 08:12:25;;;;;;;12.70;11.70;;;;;;;19.98;100.00;99070.05;104992;1271;61398;-77
2022/07/05 08:14:51;;;;;;;11.90;10.90;;;;;;;19.99;100.00;99065.86;104972;1271;61290;-75
2022/07/05 08:17:20;;;;;;;13.40;12.20;;;;;;;19.98;100.00;99069.75;104951;1271;61462;-76
2022/07/05 08:22:32;;;;;;;11.50;10.60;;;;;;;19.95;100.00;99069.59;105015;1271;69178;-77
2022/07/05 08:25:00;;;;;;;13.70;12.30;;;;;;;19.96;100.00;99067.95;104993;1271;73779;-77
2022/07/05 08:27:27;;;;;;;12.30;11.20;;;;;;;19.98;100.00;99070.40;104849;1271;61413;-77
2022/07/05 08:29:53;;;;;;;12.10;11.10;;;;;;;20.00;100.00;99071.13;104894;1272;61188;-77
2022/07/05 08:32:20;;;;;;;12.60;11.50;;;;;;;20.00;100.00;99070.45;104970;1271;74167;-77
2022/07/05 08:34:46;;;;;;;12.30;11.10;;;;;;;20.04;100.00;99072.50;104940;1271;61160;-77
2022/07/05 08:37:13;;;;;;;12.20;11.20;;;;;;;20.03;100.00;99075.30;104984;1271;74172;-77
2022/07/05 08:39:39;;;;;;;12.20;11.20;;;;;;;20.01;100.00;99079.68;104949;1271;61280;-77
2022/07/05 08:42:10;;;;;;;11.90;11.00;;;;;;;19.96;100.00;99081.67;104976;1271;61370;-77
2022/07/05 08:44:38;;;;;;;11.70;10.60;;;;;;;19.94;100.00;99088.80;105013;1271;74929;-75
2022/07/05 08:47:09;;;;;;;12.40;11.40;;;;;;;19.93;100.00;99090.23;104984;1271;69282;-76
2022/07/05 08:49:40;;;;;;;11.90;10.90;;;;;;;19.86;100.00;99085.38;105153;1271;74143;-75
2022/07/05 08:52:11;;;;;;;12.20;11.20;;;;;;;19.78;100.00;99082.27;104996;1271;61363;-75
2022/07/05 08:54:38;;;;;;;11.40;10.50;;;;;;;19.69;100.00;99080.26;104721;1271;62090;-74
2022/07/05 08:57:05;;;;;;;10.90;10.10;;;;;;;19.61;100.00;99079.27;104908;1273;76085;-74
2022/07/05 08:59:32;;;;;;;11.30;10.50;;;;;;;19.54;100.00;99082.33;104922;1271;68740;-73
2022/07/05 09:02:00;;;;;;;10.40;9.50;;;;;;;19.52;100.00;99079.84;104905;1271;73223;-73
2022/07/05 09:04:31;;;;;;;12.70;11.60;;;;;;;19.48;100.00;99083.16;105039;1271;61308;-73
2022/07/05 09:07:04;;;;;;;12.20;11.30;;;;;;;19.41;100.00;99086.52;105014;1271;61355;-74
2022/07/05 09:09:33;;;;;;;14.40;13.20;;;;;;;19.40;100.00;99087.59;105002;1271;75221;-76
2022/07/05 09:12:00;;;;;;;14.80;13.80;;;;;;;19.38;100.00;99083.83;104909;1272;70359;-75
2022/07/05 09:14:27;;;;;;;16.10;14.80;;;;;;;19.36;100.00;99085.42;104989;1271;74473;-75
2022/07/05 09:16:54;;;;;;;16.60;15.30;;;;;;;19.39;100.00;99084.04;104707;1271;61460;-77
2022/07/05 09:19:21;;;;;;;16.10;14.80;;;;;;;19.44;100.00;99087.48;104979;1271;61345;-77
2022/07/05 09:22:02;;;;;;;14.70;13.70;;;;;;;19.48;100.00;99089.13;104935;1271;75914;-75
2022/07/05 09:24:30;;;;;;;13.70;12.70;;;;;;;19.49;100.00;99085.91;104956;1271;69063;-75
2022/07/05 09:27:05;;;;;;;13.20;11.90;;;;;;;19.49;100.00;99087.29;104877;1271;74382;-75
2022/07/05 09:29:32;;;;;;;11.90;10.90;;;;;;;19.49;100.00;99087.50;104900;1271;61288;-75
2022/07/05 09:31:59;;;;;;;10.30;9.50;;;;;;;19.47;100.00;99087.71;105196;1271;61188;-74
2022/07/05 09:34:29;;;;;;;12.20;11.20;;;;;;;19.51;100.00;99086.77;105036;1271;75240;-75
2022/07/05 09:37:05;;;;;;;10.90;10.00;;;;;;;19.55;100.00;99089.66;105227;1271;70070;-75
2022/07/05 09:39:31;;;;;;;11.20;10.30;;;;;;;19.56;100.00;99083.55;105226;1271;74237;-74
2022/07/05 09:42:23;;;;;;;12.40;11.50;;;;;;;19.59;100.00;99078.79;105074;1271;61283;-79
2022/07/05 09:44:56;;;;;;;12.70;11.80;;;;;;;19.59;100.00;99075.14;105112;1271;61372;-78
2022/07/05 09:47:27;;;;;;;12.80;11.70;;;;;;;19.58;100.00;99079.75;105097;1271;75385;-74
2022/07/05 09:49:56;;;;;;;12.90;11.90;;;;;;;19.51;100.00;99082.62;105064;1271;69421;-76
2022/07/05 09:52:35;;;;;;;12.70;11.70;;;;;;;19.43;100.00;99080.61;105044;1271;74191;-74
2022/07/05 09:55:05;;;;;;;12.50;11.50;;;;;;;19.39;100.00;99082.85;105021;1271;61266;-76
2022/07/05 09:57:34;;;;;;;13.00;11.90;;;;;;;19.30;100.00;99082.42;104951;1271;61608;-77
2022/07/05 10:00:09;;;;;;;13.10;11.90;;;;;;;19.21;100.00;99081.90;104910;1271;74925;-76
2022/07/05 10:02:48;;;;;;;14.30;13.20;;;;;;;19.11;100.00;99081.37;105089;1271;70413;-73
2022/07/05 10:05:19;;;;;;;13.80;12.80;;;;;;;19.00;100.00;99083.50;105167;1271;73427;-73
2022/07/05 10:07:54;;;;;;;14.30;13.30;;;;;;;18.91;100.00;99084.80;105024;1271;61289;-74
2022/07/05 10:10:23;;;;;;;14.50;13.30;;;;;;;18.85;100.00;99087.02;105002;1271;62082;-74
2022/07/05 10:12:55;;;;;;;15.50;14.20;;;;;;;18.81;100.00;99090.97;105001;1271;76183;-75
2022/07/05 10:15:27;;;;;;;18.00;16.30;;;;;;;18.78;100.00;99089.49;105018;1271;70126;-74
2022/07/05 10:18:00;;;;;;;17.30;15.80;;;;;;;18.75;100.00;99092.65;105034;1271;74391;-74
2022/07/05 10:20:34;;;;;;;17.30;15.90;;;;;;;18.73;100.00;99092.34;104997;1271;61373;-75
2022/07/05 10:23:04;;;;;;;17.40;16.10;;;;;;;18.71;100.00;99096.49;105000;1271;61331;-74
2022/07/05 10:25:34;;;;;;;15.50;14.40;;;;;;;18.69;100.00;99097.25;104941;1271;76444;-74
2022/07/05 10:28:02;;;;;;;16.20;15.00;;;;;;;18.69;100.00;99099.03;105023;1271;69597;-74
2022/07/05 10:30:30;;;;;;;17.90;16.50;;;;;;;18.71;100.00;99100.10;104997;1271;74368;-73
2022/07/05 10:32:57;;;;;;;17.90;16.40;;;;;;;18.75;100.00;99107.98;104927;1271;61284;-74
2022/07/05 10:35:24;;;;;;;17.70;16.30;;;;;;;18.77;100.00;99109.77;104972;1271;61341;-73
2022/07/05 10:37:51;;;;;;;19.40;17.90;;;;;;;18.78;100.00;99111.13;105030;1271;73543;-75
2022/07/05 10:40:18;;;;;;;19.80;18.20;;;;;;;18.81;100.00;99113.30;105001;1270;69407;-75
2022/07/05 10:42:57;;;;;;;21.30;19.50;;;;;;;18.83;100.00;99112.54;104888;1271;73131;-75
2022/07/05 10:45:29;;;;;;;20.50;18.70;;;;;;;18.86;100.00;99115.13;105023;1271;61893;-76
2022/07/05 10:48:17;;;;;;;18.50;17.10;;;;;;;18.89;100.00;99115.73;105024;1271;61349;-77
2022/07/05 10:50:44;;;;;;;17.30;16.00;;;;;;;18.92;100.00;99111.46;104993;1271;76173;-76
2022/07/05 10:53:12;;;;;;;17.70;16.20;;;;;;;18.93;100.00;99111.39;105053;1271;69251;-76
2022/07/05 10:56:04;;;;;;;19.10;17.40;;;;;;;18.97;100.00;99109.96;105000;1271;73939;-77
2022/07/05 10:58:45;;;;;;;16.50;15.20;;;;;;;18.98;100.00;99112.14;104885;1280;61341;-76
2022/07/05 11:01:12;;;;;;;16.50;15.30;;;;;;;18.98;100.00;99109.09;104976;1279;61479;-76
2022/07/05 11:03:48;;;;;;;18.40;16.80;;;;;;;18.98;100.00;99108.73;104815;1280;61355;-75
2022/07/05 11:06:21;;;;;;;17.00;15.60;;;;;;;19.01;100.00;99107.91;105333;1280;70178;-76
2022/07/05 11:08:59;;;;;;;17.50;16.10;;;;;;;19.04;100.00;99105.48;105313;1278;71444;-77
2022/07/05 11:11:32;;;;;;;17.00;15.40;;;;;;;19.07;100.00;99101.93;106752;1280;61315;-77
2022/07/05 11:14:03;;;;;;;17.50;16.00;;;;;;;19.06;100.00;99097.64;107201;1280;61280;-78
2022/07/05 11:16:34;;;;;;;18.30;16.50;;;;;;;19.08;100.00;99100.73;107098;1280;75218;-76
2022/07/05 11:19:06;;;;;;;16.20;14.80;;;;;;;19.11;100.00;99100.64;105907;1280;67913;-76